sensor_id;sensor_type;location;lat;lon;timestamp;temperature;humidity
16247;DHT22;8231;50.866;7.944;2022-08-16T00:01:24;14.90;99.90
16247;DHT22;8231;50.866;7.944;2022-08-16T00:04:00;14.80;99.90
16247;DHT22;8231;50.866;7.944;2022-08-16T00:06:31;14.80;99.90
16247;DHT22;8231;50.866;7.944;2022-08-16T00:09:02;14.70;99.90
16247;DHT22;8231;50.866;7.944;2022-08-16T00:11:31;14.70;99.90
16247;DHT22;8231;50.866;7.944;2022-08-16T00:14:01;14.70;99.90
16247;DHT22;8231;50.866;7.944;2022-08-16T00:16:34;14.70;99.90
16247;DHT22;8231;50.866;7.944;2022-08-16T00:19:27;14.70;99.90
16247;DHT22;8231;50.866;7.944;2022-08-16T00:22:08;14.70;99.90
16247;DHT22;8231;50.866;7.944;2022-08-16T00:24:41;14.70;99.90
16247;DHT22;8231;50.866;7.944;2022-08-16T00:27:10;14.60;99.90
16247;DHT22;8231;50.866;7.944;2022-08-16T00:29:40;14.70;99.90
16247;DHT22;8231;50.866;7.944;2022-08-16T00:32:12;14.70;99.90
16247;DHT22;8231;50.866;7.944;2022-08-16T00:34:44;14.60;99.90
16247;DHT22;8231;50.866;7.944;2022-08-16T00:37:22;14.60;99.90
16247;DHT22;8231;50.866;7.944;2022-08-16T00:40:12;14.50;99.90
16247;DHT22;8231;50.866;7.944;2022-08-16T00:43:02;14.50;99.90
16247;DHT22;8231;50.866;7.944;2022-08-16T00:45:37;14.70;99.90
16247;DHT22;8231;50.866;7.944;2022-08-16T00:48:27;14.60;99.90
16247;DHT22;8231;50.866;7.944;2022-08-16T00:50:58;14.40;99.90
16247;DHT22;8231;50.866;7.944;2022-08-16T00:53:28;14.40;99.90
16247;DHT22;8231;50.866;7.944;2022-08-16T00:56:02;14.50;99.90
16247;DHT22;8231;50.866;7.944;2022-08-16T00:58:33;14.50;99.90
16247;DHT22;8231;50.866;7.944;2022-08-16T01:01:04;14.40;99.90
16247;DHT22;8231;50.866;7.944;2022-08-16T01:03:36;14.40;99.90
16247;DHT22;8231;50.866;7.944;2022-08-16T01:06:08;14.30;99.90
16247;DHT22;8231;50.866;7.944;2022-08-16T01:08:57;14.50;99.90
16247;DHT22;8231;50.866;7.944;2022-08-16T01:11:28;14.40;99.90
16247;DHT22;8231;50.866;7.944;2022-08-16T01:14:01;14.40;99.90
16247;DHT22;8231;50.866;7.944;2022-08-16T01:16:33;14.50;99.90
16247;DHT22;8231;50.866;7.944;2022-08-16T01:19:09;14.40;99.90
16247;DHT22;8231;50.866;7.944;2022-08-16T01:21:45;14.40;99.90
16247;DHT22;8231;50.866;7.944;2022-08-16T01:24:22;14.30;99.90
16247;DHT22;8231;50.866;7.944;2022-08-16T01:27:14;14.30;99.90
16247;DHT22;8231;50.866;7.944;2022-08-16T01:29:46;14.20;99.90
16247;DHT22;8231;50.866;7.944;2022-08-16T01:32:26;14.30;99.90
16247;DHT22;8231;50.866;7.944;2022-08-16T01:35:11;14.20;99.90
16247;DHT22;8231;50.866;7.944;2022-08-16T01:37:48;14.20;99.90
16247;DHT22;8231;50.866;7.944;2022-08-16T01:40:27;14.20;99.90
16247;DHT22;8231;50.866;7.944;2022-08-16T01:42:57;14.10;99.90
16247;DHT22;8231;50.866;7.944;2022-08-16T01:45:25;14.10;99.90
16247;DHT22;8231;50.866;7.944;2022-08-16T01:48:09;14.20;99.90
16247;DHT22;8231;50.866;7.944;2022-08-16T01:50:48;14.20;99.90
16247;DHT22;8231;50.866;7.944;2022-08-16T01:53:39;14.10;99.90
16247;DHT22;8231;50.866;7.944;2022-08-16T01:56:27;14.10;99.90
16247;DHT22;8231;50.866;7.944;2022-08-16T01:58:58;14.10;99.90
16247;DHT22;8231;50.866;7.944;2022-08-16T02:01:27;14.20;99.90
16247;DHT22;8231;50.866;7.944;2022-08-16T02:03:58;14.10;99.90
16247;DHT22;8231;50.866;7.944;2022-08-16T02:06:40;14.00;99.90
16247;DHT22;8231;50.866;7.944;2022-08-16T02:09:16;14.00;99.90
16247;DHT22;8231;50.866;7.944;2022-08-16T02:11:53;14.00;99.90
16247;DHT22;8231;50.866;7.944;2022-08-16T02:14:22;14.00;99.90
16247;DHT22;8231;50.866;7.944;2022-08-16T02:16:55;14.00;99.90
16247;DHT22;8231;50.866;7.944;2022-08-16T02:19:24;14.00;99.90
16247;DHT22;8231;50.866;7.944;2022-08-16T02:22:15;13.90;99.90
16247;DHT22;8231;50.866;7.944;2022-08-16T02:25:04;13.90;99.90
16247;DHT22;8231;50.866;7.944;2022-08-16T02:27:38;13.80;99.90
16247;DHT22;8231;50.866;7.944;2022-08-16T02:30:10;13.70;99.90
16247;DHT22;8231;50.866;7.944;2022-08-16T02:33:01;13.80;99.90
16247;DHT22;8231;50.866;7.944;2022-08-16T02:35:30;13.70;99.90
16247;DHT22;8231;50.866;7.944;2022-08-16T02:37:59;13.80;99.90
16247;DHT22;8231;50.866;7.944;2022-08-16T02:40:35;13.90;99.90
16247;DHT22;8231;50.866;7.944;2022-08-16T02:43:09;13.70;99.90
16247;DHT22;8231;50.866;7.944;2022-08-16T02:45:37;13.70;99.90
16247;DHT22;8231;50.866;7.944;2022-08-16T02:48:07;13.60;99.90
16247;DHT22;8231;50.866;7.944;2022-08-16T02:50:57;13.70;99.90
16247;DHT22;8231;50.866;7.944;2022-08-16T02:53:39;13.60;99.90
16247;DHT22;8231;50.866;7.944;2022-08-16T02:56:10;13.60;99.90
16247;DHT22;8231;50.866;7.944;2022-08-16T02:58:43;13.60;99.90
16247;DHT22;8231;50.866;7.944;2022-08-16T03:01:12;13.50;99.90
16247;DHT22;8231;50.866;7.944;2022-08-16T03:04:02;13.50;99.90
16247;DHT22;8231;50.866;7.944;2022-08-16T03:06:51;13.50;99.90
16247;DHT22;8231;50.866;7.944;2022-08-16T03:09:43;13.40;99.90
16247;DHT22;8231;50.866;7.944;2022-08-16T03:12:15;13.50;99.90
16247;DHT22;8231;50.866;7.944;2022-08-16T03:14:47;13.40;99.90
16247;DHT22;8231;50.866;7.944;2022-08-16T03:17:18;13.40;99.90
16247;DHT22;8231;50.866;7.944;2022-08-16T03:19:51;13.50;99.90
16247;DHT22;8231;50.866;7.944;2022-08-16T03:22:33;13.40;99.90
16247;DHT22;8231;50.866;7.944;2022-08-16T03:25:08;13.30;99.90
16247;DHT22;8231;50.866;7.944;2022-08-16T03:27:39;13.30;99.90
16247;DHT22;8231;50.866;7.944;2022-08-16T03:30:18;13.30;99.90
16247;DHT22;8231;50.866;7.944;2022-08-16T03:32:53;13.20;99.90
16247;DHT22;8231;50.866;7.944;2022-08-16T03:35:27;13.20;99.90
16247;DHT22;8231;50.866;7.944;2022-08-16T03:38:06;13.20;99.90
16247;DHT22;8231;50.866;7.944;2022-08-16T03:40:56;13.10;99.90
16247;DHT22;8231;50.866;7.944;2022-08-16T03:43:28;13.20;99.90
16247;DHT22;8231;50.866;7.944;2022-08-16T03:46:19;13.20;99.90
16247;DHT22;8231;50.866;7.944;2022-08-16T03:49:10;13.10;99.90
16247;DHT22;8231;50.866;7.944;2022-08-16T03:51:42;13.10;99.90
16247;DHT22;8231;50.866;7.944;2022-08-16T03:54:18;13.10;99.90
16247;DHT22;8231;50.866;7.944;2022-08-16T03:56:48;13.10;99.90
16247;DHT22;8231;50.866;7.944;2022-08-16T03:59:26;13.00;99.90
16247;DHT22;8231;50.866;7.944;2022-08-16T04:01:59;13.00;99.90
16247;DHT22;8231;50.866;7.944;2022-08-16T04:04:38;13.00;99.90
16247;DHT22;8231;50.866;7.944;2022-08-16T04:07:07;12.90;99.90
16247;DHT22;8231;50.866;7.944;2022-08-16T04:09:39;12.90;99.90
16247;DHT22;8231;50.866;7.944;2022-08-16T04:12:09;12.90;99.90
16247;DHT22;8231;50.866;7.944;2022-08-16T04:14:59;12.90;99.90
16247;DHT22;8231;50.866;7.944;2022-08-16T04:17:31;12.90;99.90
16247;DHT22;8231;50.866;7.944;2022-08-16T04:20:04;12.90;99.90
16247;DHT22;8231;50.866;7.944;2022-08-16T04:22:54;12.80;99.90
16247;DHT22;8231;50.866;7.944;2022-08-16T04:25:25;12.80;99.90
16247;DHT22;8231;50.866;7.944;2022-08-16T04:27:55;12.80;99.90
16247;DHT22;8231;50.866;7.944;2022-08-16T04:30:24;12.90;99.90
16247;DHT22;8231;50.866;7.944;2022-08-16T04:33:02;12.90;99.90
16247;DHT22;8231;50.866;7.944;2022-08-16T04:35:33;13.00;99.90
16247;DHT22;8231;50.866;7.944;2022-08-16T04:38:05;13.00;99.90
16247;DHT22;8231;50.866;7.944;2022-08-16T04:40:47;13.10;99.90
16247;DHT22;8231;50.866;7.944;2022-08-16T04:43:17;13.10;99.90
16247;DHT22;8231;50.866;7.944;2022-08-16T04:45:45;13.10;99.90
16247;DHT22;8231;50.866;7.944;2022-08-16T04:48:29;13.10;99.90
16247;DHT22;8231;50.866;7.944;2022-08-16T04:51:05;13.10;99.90
16247;DHT22;8231;50.866;7.944;2022-08-16T04:53:44;13.20;99.90
16247;DHT22;8231;50.866;7.944;2022-08-16T04:56:15;13.20;99.90
16247;DHT22;8231;50.866;7.944;2022-08-16T04:58:43;13.20;99.90
16247;DHT22;8231;50.866;7.944;2022-08-16T05:01:16;13.20;99.90
16247;DHT22;8231;50.866;7.944;2022-08-16T05:03:46;13.30;99.90
16247;DHT22;8231;50.866;7.944;2022-08-16T05:06:35;13.50;99.90
16247;DHT22;8231;50.866;7.944;2022-08-16T05:09:16;13.40;99.90
16247;DHT22;8231;50.866;7.944;2022-08-16T05:11:49;13.40;99.90
16247;DHT22;8231;50.866;7.944;2022-08-16T05:14:18;13.60;99.90
16247;DHT22;8231;50.866;7.944;2022-08-16T05:17:06;13.80;99.90
16247;DHT22;8231;50.866;7.944;2022-08-16T05:19:39;14.10;99.90
16247;DHT22;8231;50.866;7.944;2022-08-16T05:22:15;14.40;99.90
16247;DHT22;8231;50.866;7.944;2022-08-16T05:24:51;14.60;99.90
16247;DHT22;8231;50.866;7.944;2022-08-16T05:27:22;14.90;99.90
16247;DHT22;8231;50.866;7.944;2022-08-16T05:29:53;15.20;99.90
16247;DHT22;8231;50.866;7.944;2022-08-16T05:32:31;15.50;99.90
16247;DHT22;8231;50.866;7.944;2022-08-16T05:35:09;15.90;99.90
16247;DHT22;8231;50.866;7.944;2022-08-16T05:37:45;16.40;99.90
16247;DHT22;8231;50.866;7.944;2022-08-16T05:40:16;16.90;99.90
16247;DHT22;8231;50.866;7.944;2022-08-16T05:42:47;17.30;99.90
16247;DHT22;8231;50.866;7.944;2022-08-16T05:45:19;17.80;99.90
16247;DHT22;8231;50.866;7.944;2022-08-16T05:47:53;18.20;99.90
16247;DHT22;8231;50.866;7.944;2022-08-16T05:50:45;18.70;99.90
16247;DHT22;8231;50.866;7.944;2022-08-16T05:53:19;19.20;99.90
16247;DHT22;8231;50.866;7.944;2022-08-16T05:56:10;19.60;99.90
16247;DHT22;8231;50.866;7.944;2022-08-16T05:58:45;20.20;99.90
16247;DHT22;8231;50.866;7.944;2022-08-16T06:01:15;20.70;99.90
16247;DHT22;8231;50.866;7.944;2022-08-16T06:03:48;21.10;99.90
16247;DHT22;8231;50.866;7.944;2022-08-16T06:06:32;21.60;99.90
16247;DHT22;8231;50.866;7.944;2022-08-16T06:09:02;22.00;99.90
16247;DHT22;8231;50.866;7.944;2022-08-16T06:11:34;22.30;99.90
16247;DHT22;8231;50.866;7.944;2022-08-16T06:14:03;22.50;99.90
16247;DHT22;8231;50.866;7.944;2022-08-16T06:16:38;22.70;99.90
16247;DHT22;8231;50.866;7.944;2022-08-16T06:19:06;22.80;99.90
16247;DHT22;8231;50.866;7.944;2022-08-16T06:21:40;22.70;99.90
16247;DHT22;8231;50.866;7.944;2022-08-16T06:24:09;22.60;99.90
16247;DHT22;8231;50.866;7.944;2022-08-16T06:26:57;22.30;99.90
16247;DHT22;8231;50.866;7.944;2022-08-16T06:29:30;22.20;99.90
16247;DHT22;8231;50.866;7.944;2022-08-16T06:31:59;22.20;99.90
16247;DHT22;8231;50.866;7.944;2022-08-16T06:34:30;22.40;99.90
16247;DHT22;8231;50.866;7.944;2022-08-16T06:37:20;22.80;99.90
16247;DHT22;8231;50.866;7.944;2022-08-16T06:39:48;23.30;99.90
16247;DHT22;8231;50.866;7.944;2022-08-16T06:42:23;23.90;99.90
16247;DHT22;8231;50.866;7.944;2022-08-16T06:45:09;24.40;99.90
16247;DHT22;8231;50.866;7.944;2022-08-16T06:47:41;25.00;99.90
16247;DHT22;8231;50.866;7.944;2022-08-16T06:50:20;25.60;99.90
16247;DHT22;8231;50.866;7.944;2022-08-16T06:52:59;26.30;99.90
16247;DHT22;8231;50.866;7.944;2022-08-16T06:55:41;26.70;99.90
16247;DHT22;8231;50.866;7.944;2022-08-16T06:58:12;27.00;99.90
16247;DHT22;8231;50.866;7.944;2022-08-16T07:01:04;27.10;99.80
16247;DHT22;8231;50.866;7.944;2022-08-16T07:03:43;27.20;99.00
16247;DHT22;8231;50.866;7.944;2022-08-16T07:06:24;27.60;98.80
16247;DHT22;8231;50.866;7.944;2022-08-16T07:08:58;27.90;97.90
16247;DHT22;8231;50.866;7.944;2022-08-16T07:11:31;28.40;96.40
16247;DHT22;8231;50.866;7.944;2022-08-16T07:14:25;28.40;96.10
16247;DHT22;8231;50.866;7.944;2022-08-16T07:16:57;28.40;96.00
16247;DHT22;8231;50.866;7.944;2022-08-16T07:19:28;28.50;95.30
16247;DHT22;8231;50.866;7.944;2022-08-16T07:22:18;28.40;95.10
16247;DHT22;8231;50.866;7.944;2022-08-16T07:25:17;28.20;95.70
16247;DHT22;8231;50.866;7.944;2022-08-16T07:27:48;28.70;94.30
16247;DHT22;8231;50.866;7.944;2022-08-16T07:30:21;28.70;94.40
16247;DHT22;8231;50.866;7.944;2022-08-16T07:33:15;29.20;94.00
16247;DHT22;8231;50.866;7.944;2022-08-16T07:36:05;29.20;92.90
16247;DHT22;8231;50.866;7.944;2022-08-16T07:38:39;29.60;93.10
16247;DHT22;8231;50.866;7.944;2022-08-16T07:41:10;30.20;91.60
16247;DHT22;8231;50.866;7.944;2022-08-16T07:43:43;29.50;91.90
16247;DHT22;8231;50.866;7.944;2022-08-16T07:46:13;29.30;92.10
16247;DHT22;8231;50.866;7.944;2022-08-16T07:49:07;29.30;93.00
16247;DHT22;8231;50.866;7.944;2022-08-16T07:51:38;29.70;91.60
16247;DHT22;8231;50.866;7.944;2022-08-16T07:54:09;29.90;91.60
16247;DHT22;8231;50.866;7.944;2022-08-16T07:56:49;30.20;90.60
16247;DHT22;8231;50.866;7.944;2022-08-16T07:59:19;30.30;90.00
16247;DHT22;8231;50.866;7.944;2022-08-16T08:01:48;30.00;89.90
16247;DHT22;8231;50.866;7.944;2022-08-16T08:04:20;29.80;89.30
16247;DHT22;8231;50.866;7.944;2022-08-16T08:06:49;30.10;88.80
16247;DHT22;8231;50.866;7.944;2022-08-16T08:09:18;30.40;88.50
16247;DHT22;8231;50.866;7.944;2022-08-16T08:11:48;30.90;87.30
16247;DHT22;8231;50.866;7.944;2022-08-16T08:14:32;31.00;85.00
16247;DHT22;8231;50.866;7.944;2022-08-16T08:17:00;31.50;84.70
16247;DHT22;8231;50.866;7.944;2022-08-16T08:19:34;31.90;83.00
16247;DHT22;8231;50.866;7.944;2022-08-16T08:22:08;32.50;80.50
16247;DHT22;8231;50.866;7.944;2022-08-16T08:24:54;32.80;78.90
16247;DHT22;8231;50.866;7.944;2022-08-16T08:27:31;32.90;78.80
16247;DHT22;8231;50.866;7.944;2022-08-16T08:30:01;33.40;75.20
16247;DHT22;8231;50.866;7.944;2022-08-16T08:32:51;33.60;74.10
16247;DHT22;8231;50.866;7.944;2022-08-16T08:35:32;32.80;74.50
16247;DHT22;8231;50.866;7.944;2022-08-16T08:38:02;32.80;73.30
16247;DHT22;8231;50.866;7.944;2022-08-16T08:40:41;33.00;73.20
16247;DHT22;8231;50.866;7.944;2022-08-16T08:43:13;33.10;72.40
16247;DHT22;8231;50.866;7.944;2022-08-16T08:45:58;33.20;71.80
16247;DHT22;8231;50.866;7.944;2022-08-16T08:48:26;33.30;71.50
16247;DHT22;8231;50.866;7.944;2022-08-16T08:51:07;33.30;69.70
16247;DHT22;8231;50.866;7.944;2022-08-16T08:53:47;33.30;69.70
16247;DHT22;8231;50.866;7.944;2022-08-16T08:56:28;32.80;70.50
16247;DHT22;8231;50.866;7.944;2022-08-16T08:59:12;32.80;70.10
16247;DHT22;8231;50.866;7.944;2022-08-16T09:01:49;32.70;70.30
16247;DHT22;8231;50.866;7.944;2022-08-16T09:04:31;32.10;70.80
16247;DHT22;8231;50.866;7.944;2022-08-16T09:07:02;32.30;70.30
16247;DHT22;8231;50.866;7.944;2022-08-16T09:09:32;32.90;68.00
16247;DHT22;8231;50.866;7.944;2022-08-16T09:12:09;33.50;66.80
16247;DHT22;8231;50.866;7.944;2022-08-16T09:15:03;33.80;67.80
16247;DHT22;8231;50.866;7.944;2022-08-16T09:17:32;33.90;65.50
16247;DHT22;8231;50.866;7.944;2022-08-16T09:20:21;34.20;65.90
16247;DHT22;8231;50.866;7.944;2022-08-16T09:22:52;34.20;64.80
16247;DHT22;8231;50.866;7.944;2022-08-16T09:25:32;34.00;63.90
16247;DHT22;8231;50.866;7.944;2022-08-16T09:28:05;33.60;63.10
16247;DHT22;8231;50.866;7.944;2022-08-16T09:30:41;33.60;64.60
16247;DHT22;8231;50.866;7.944;2022-08-16T09:33:13;33.90;62.40
16247;DHT22;8231;50.866;7.944;2022-08-16T09:35:47;33.80;62.30
16247;DHT22;8231;50.866;7.944;2022-08-16T09:38:20;33.70;62.40
16247;DHT22;8231;50.866;7.944;2022-08-16T09:40:59;33.60;62.70
16247;DHT22;8231;50.866;7.944;2022-08-16T09:43:28;33.20;62.20
16247;DHT22;8231;50.866;7.944;2022-08-16T09:46:18;33.40;62.80
16247;DHT22;8231;50.866;7.944;2022-08-16T09:49:07;33.70;63.20
16247;DHT22;8231;50.866;7.944;2022-08-16T09:51:38;33.30;62.40
16247;DHT22;8231;50.866;7.944;2022-08-16T09:54:06;33.50;61.60
16247;DHT22;8231;50.866;7.944;2022-08-16T09:56:42;33.10;61.70
16247;DHT22;8231;50.866;7.944;2022-08-16T09:59:20;32.70;62.70
16247;DHT22;8231;50.866;7.944;2022-08-16T10:01:50;33.00;63.20
16247;DHT22;8231;50.866;7.944;2022-08-16T10:04:21;33.00;61.60
16247;DHT22;8231;50.866;7.944;2022-08-16T10:07:01;33.20;61.60
16247;DHT22;8231;50.866;7.944;2022-08-16T10:09:42;32.90;61.40
16247;DHT22;8231;50.866;7.944;2022-08-16T10:12:24;32.70;62.30
16247;DHT22;8231;50.866;7.944;2022-08-16T10:15:11;32.80;62.90
16247;DHT22;8231;50.866;7.944;2022-08-16T10:17:44;32.70;61.40
16247;DHT22;8231;50.866;7.944;2022-08-16T10:20:29;32.80;61.50
16247;DHT22;8231;50.866;7.944;2022-08-16T10:23:00;32.90;61.90
16247;DHT22;8231;50.866;7.944;2022-08-16T10:25:35;32.90;62.10
16247;DHT22;8231;50.866;7.944;2022-08-16T10:28:23;32.80;61.90
16247;DHT22;8231;50.866;7.944;2022-08-16T10:30:55;32.70;62.20
16247;DHT22;8231;50.866;7.944;2022-08-16T10:33:27;32.50;62.80
16247;DHT22;8231;50.866;7.944;2022-08-16T10:36:00;32.30;62.60
16247;DHT22;8231;50.866;7.944;2022-08-16T10:38:30;32.00;62.20
16247;DHT22;8231;50.866;7.944;2022-08-16T10:41:03;31.80;62.50
16247;DHT22;8231;50.866;7.944;2022-08-16T10:43:33;31.70;63.20
16247;DHT22;8231;50.866;7.944;2022-08-16T10:46:05;31.80;61.90
16247;DHT22;8231;50.866;7.944;2022-08-16T10:48:54;31.50;62.00
16247;DHT22;8231;50.866;7.944;2022-08-16T10:51:23;31.30;62.00
16247;DHT22;8231;50.866;7.944;2022-08-16T10:54:00;31.40;64.00
16247;DHT22;8231;50.866;7.944;2022-08-16T10:56:31;31.30;64.20
16247;DHT22;8231;50.866;7.944;2022-08-16T10:59:18;31.00;63.60
16247;DHT22;8231;50.866;7.944;2022-08-16T11:02:08;31.00;63.60
16247;DHT22;8231;50.866;7.944;2022-08-16T11:04:57;31.20;64.30
16247;DHT22;8231;50.866;7.944;2022-08-16T11:07:35;31.30;64.20
16247;DHT22;8231;50.866;7.944;2022-08-16T11:10:24;31.20;64.50
16247;DHT22;8231;50.866;7.944;2022-08-16T11:13:15;31.00;63.60
16247;DHT22;8231;50.866;7.944;2022-08-16T11:16:04;31.20;64.20
16247;DHT22;8231;50.866;7.944;2022-08-16T11:18:52;31.40;62.80
16247;DHT22;8231;50.866;7.944;2022-08-16T11:21:37;31.70;63.20
16247;DHT22;8231;50.866;7.944;2022-08-16T11:24:26;32.10;61.20
16247;DHT22;8231;50.866;7.944;2022-08-16T11:27:07;31.70;61.00
16247;DHT22;8231;50.866;7.944;2022-08-16T11:29:56;31.70;61.00
16247;DHT22;8231;50.866;7.944;2022-08-16T11:32:26;31.60;62.60
16247;DHT22;8231;50.866;7.944;2022-08-16T11:35:01;31.40;61.40
16247;DHT22;8231;50.866;7.944;2022-08-16T11:37:46;31.20;62.00
16247;DHT22;8231;50.866;7.944;2022-08-16T11:40:37;31.10;61.40
16247;DHT22;8231;50.866;7.944;2022-08-16T11:43:11;31.10;61.20
16247;DHT22;8231;50.866;7.944;2022-08-16T11:45:43;31.00;61.00
16247;DHT22;8231;50.866;7.944;2022-08-16T11:48:21;31.10;62.50
16247;DHT22;8231;50.866;7.944;2022-08-16T11:50:49;30.80;62.20
16247;DHT22;8231;50.866;7.944;2022-08-16T11:53:19;30.70;64.00
16247;DHT22;8231;50.866;7.944;2022-08-16T11:55:48;30.80;64.30
16247;DHT22;8231;50.866;7.944;2022-08-16T11:58:21;30.60;64.40
16247;DHT22;8231;50.866;7.944;2022-08-16T12:00:52;30.50;65.10
16247;DHT22;8231;50.866;7.944;2022-08-16T12:03:21;30.40;62.80
16247;DHT22;8231;50.866;7.944;2022-08-16T12:06:04;30.50;63.10
16247;DHT22;8231;50.866;7.944;2022-08-16T12:08:41;30.40;63.00
16247;DHT22;8231;50.866;7.944;2022-08-16T12:11:12;30.10;62.60
16247;DHT22;8231;50.866;7.944;2022-08-16T12:13:42;30.00;62.90
16247;DHT22;8231;50.866;7.944;2022-08-16T12:16:11;30.10;63.80
16247;DHT22;8231;50.866;7.944;2022-08-16T12:18:46;30.30;62.60
16247;DHT22;8231;50.866;7.944;2022-08-16T12:21:20;30.40;62.60
16247;DHT22;8231;50.866;7.944;2022-08-16T12:23:50;30.10;62.70
16247;DHT22;8231;50.866;7.944;2022-08-16T12:26:18;30.10;62.80
16247;DHT22;8231;50.866;7.944;2022-08-16T12:28:46;30.00;62.80
16247;DHT22;8231;50.866;7.944;2022-08-16T12:31:22;30.20;63.00
16247;DHT22;8231;50.866;7.944;2022-08-16T12:33:51;30.30;65.40
16247;DHT22;8231;50.866;7.944;2022-08-16T12:36:24;30.30;64.30
16247;DHT22;8231;50.866;7.944;2022-08-16T12:38:58;30.20;62.90
16247;DHT22;8231;50.866;7.944;2022-08-16T12:41:27;29.90;63.50
16247;DHT22;8231;50.866;7.944;2022-08-16T12:44:00;29.90;64.40
16247;DHT22;8231;50.866;7.944;2022-08-16T12:46:29;29.80;64.60
16247;DHT22;8231;50.866;7.944;2022-08-16T12:48:59;29.70;64.80
16247;DHT22;8231;50.866;7.944;2022-08-16T12:51:30;29.70;64.50
16247;DHT22;8231;50.866;7.944;2022-08-16T12:54:20;29.40;64.90
16247;DHT22;8231;50.866;7.944;2022-08-16T12:56:48;29.40;67.20
16247;DHT22;8231;50.866;7.944;2022-08-16T12:59:17;29.60;66.00
16247;DHT22;8231;50.866;7.944;2022-08-16T13:01:50;29.50;64.60
16247;DHT22;8231;50.866;7.944;2022-08-16T13:04:25;29.40;65.10
16247;DHT22;8231;50.866;7.944;2022-08-16T13:06:57;29.10;65.90
16247;DHT22;8231;50.866;7.944;2022-08-16T13:09:27;29.00;65.80
16247;DHT22;8231;50.866;7.944;2022-08-16T13:12:06;29.10;66.10
16247;DHT22;8231;50.866;7.944;2022-08-16T13:14:43;29.10;67.40
16247;DHT22;8231;50.866;7.944;2022-08-16T13:17:14;29.10;67.30
16247;DHT22;8231;50.866;7.944;2022-08-16T13:19:47;29.00;67.30
16247;DHT22;8231;50.866;7.944;2022-08-16T13:22:37;28.70;67.40
16247;DHT22;8231;50.866;7.944;2022-08-16T13:25:14;28.70;67.90
16247;DHT22;8231;50.866;7.944;2022-08-16T13:27:48;28.80;68.80
16247;DHT22;8231;50.866;7.944;2022-08-16T13:30:32;28.90;71.30
16247;DHT22;8231;50.866;7.944;2022-08-16T13:33:09;28.90;70.00
16247;DHT22;8231;50.866;7.944;2022-08-16T13:35:41;29.00;69.60
16247;DHT22;8231;50.866;7.944;2022-08-16T13:38:11;29.00;74.40
16247;DHT22;8231;50.866;7.944;2022-08-16T13:40:53;29.00;75.80
16247;DHT22;8231;50.866;7.944;2022-08-16T13:43:23;29.00;73.00
16247;DHT22;8231;50.866;7.944;2022-08-16T13:45:53;28.90;71.00
16247;DHT22;8231;50.866;7.944;2022-08-16T13:48:22;28.80;72.60
16247;DHT22;8231;50.866;7.944;2022-08-16T13:50:52;28.90;73.40
16247;DHT22;8231;50.866;7.944;2022-08-16T13:53:23;28.90;74.10
16247;DHT22;8231;50.866;7.944;2022-08-16T13:55:54;28.70;74.60
16247;DHT22;8231;50.866;7.944;2022-08-16T13:58:25;28.70;74.50
16247;DHT22;8231;50.866;7.944;2022-08-16T14:01:04;28.70;70.00
16247;DHT22;8231;50.866;7.944;2022-08-16T14:03:37;28.70;70.40
16247;DHT22;8231;50.866;7.944;2022-08-16T14:06:06;28.80;69.70
16247;DHT22;8231;50.866;7.944;2022-08-16T14:08:37;28.90;72.00
16247;DHT22;8231;50.866;7.944;2022-08-16T14:11:10;28.90;70.10
16247;DHT22;8231;50.866;7.944;2022-08-16T14:13:40;29.00;68.60
16247;DHT22;8231;50.866;7.944;2022-08-16T14:16:09;29.10;67.80
16247;DHT22;8231;50.866;7.944;2022-08-16T14:18:50;29.20;67.30
16247;DHT22;8231;50.866;7.944;2022-08-16T14:21:19;29.20;67.90
16247;DHT22;8231;50.866;7.944;2022-08-16T14:23:50;29.30;69.40
16247;DHT22;8231;50.866;7.944;2022-08-16T14:26:20;29.40;67.20
16247;DHT22;8231;50.866;7.944;2022-08-16T14:28:50;29.30;66.30
16247;DHT22;8231;50.866;7.944;2022-08-16T14:31:20;29.30;66.50
16247;DHT22;8231;50.866;7.944;2022-08-16T14:33:49;29.30;70.70
16247;DHT22;8231;50.866;7.944;2022-08-16T14:36:18;29.30;67.50
16247;DHT22;8231;50.866;7.944;2022-08-16T14:38:56;29.40;66.70
16247;DHT22;8231;50.866;7.944;2022-08-16T14:41:26;29.50;66.50
16247;DHT22;8231;50.866;7.944;2022-08-16T14:43:55;29.40;65.70
16247;DHT22;8231;50.866;7.944;2022-08-16T14:46:23;29.40;65.90
16247;DHT22;8231;50.866;7.944;2022-08-16T14:48:51;29.20;65.80
16247;DHT22;8231;50.866;7.944;2022-08-16T14:51:19;29.30;66.00
16247;DHT22;8231;50.866;7.944;2022-08-16T14:53:53;29.20;69.40
16247;DHT22;8231;50.866;7.944;2022-08-16T14:56:22;29.20;67.50
16247;DHT22;8231;50.866;7.944;2022-08-16T14:59:10;29.30;68.00
16247;DHT22;8231;50.866;7.944;2022-08-16T15:01:38;29.20;66.50
16247;DHT22;8231;50.866;7.944;2022-08-16T15:04:26;29.20;69.60
16247;DHT22;8231;50.866;7.944;2022-08-16T15:07:06;29.20;66.80
16247;DHT22;8231;50.866;7.944;2022-08-16T15:09:39;29.20;66.30
16247;DHT22;8231;50.866;7.944;2022-08-16T15:12:27;29.20;66.10
16247;DHT22;8231;50.866;7.944;2022-08-16T15:14:59;29.20;66.20
16247;DHT22;8231;50.866;7.944;2022-08-16T15:17:30;29.20;66.40
16247;DHT22;8231;50.866;7.944;2022-08-16T15:20:04;29.20;66.40
16247;DHT22;8231;50.866;7.944;2022-08-16T15:22:37;29.20;66.10
16247;DHT22;8231;50.866;7.944;2022-08-16T15:25:07;29.10;65.80
16247;DHT22;8231;50.866;7.944;2022-08-16T15:27:37;29.20;66.00
16247;DHT22;8231;50.866;7.944;2022-08-16T15:30:10;29.30;65.60
16247;DHT22;8231;50.866;7.944;2022-08-16T15:33:01;29.50;64.80
16247;DHT22;8231;50.866;7.944;2022-08-16T15:35:30;29.50;64.20
16247;DHT22;8231;50.866;7.944;2022-08-16T15:38:02;29.60;63.50
16247;DHT22;8231;50.866;7.944;2022-08-16T15:40:35;29.70;63.40
16247;DHT22;8231;50.866;7.944;2022-08-16T15:43:24;29.70;62.60
16247;DHT22;8231;50.866;7.944;2022-08-16T15:46:06;29.70;63.10
16247;DHT22;8231;50.866;7.944;2022-08-16T15:49:10;29.70;62.70
16247;DHT22;8231;50.866;7.944;2022-08-16T15:51:39;29.60;63.20
16247;DHT22;8231;50.866;7.944;2022-08-16T15:54:12;29.40;62.50
16247;DHT22;8231;50.866;7.944;2022-08-16T15:56:56;29.40;62.10
16247;DHT22;8231;50.866;7.944;2022-08-16T15:59:39;29.40;63.00
16247;DHT22;8231;50.866;7.944;2022-08-16T16:02:20;29.40;62.60
16247;DHT22;8231;50.866;7.944;2022-08-16T16:04:58;29.60;63.70
16247;DHT22;8231;50.866;7.944;2022-08-16T16:07:29;29.50;64.10
16247;DHT22;8231;50.866;7.944;2022-08-16T16:10:02;29.60;64.20
16247;DHT22;8231;50.866;7.944;2022-08-16T16:12:33;29.70;62.80
16247;DHT22;8231;50.866;7.944;2022-08-16T16:15:22;29.70;63.30
16247;DHT22;8231;50.866;7.944;2022-08-16T16:17:53;29.80;62.90
16247;DHT22;8231;50.866;7.944;2022-08-16T16:20:22;29.80;63.40
16247;DHT22;8231;50.866;7.944;2022-08-16T16:22:54;29.80;63.90
16247;DHT22;8231;50.866;7.944;2022-08-16T16:25:24;29.80;64.10
16247;DHT22;8231;50.866;7.944;2022-08-16T16:27:53;29.80;62.40
16247;DHT22;8231;50.866;7.944;2022-08-16T16:30:27;29.90;61.60
16247;DHT22;8231;50.866;7.944;2022-08-16T16:33:13;29.80;61.30
16247;DHT22;8231;50.866;7.944;2022-08-16T16:35:49;29.80;63.80
16247;DHT22;8231;50.866;7.944;2022-08-16T16:38:26;29.70;63.90
16247;DHT22;8231;50.866;7.944;2022-08-16T16:40:57;29.70;63.90